sensor_id;sensor_type;location;lat;lon;timestamp;P1;durP1;ratioP1;P2;durP2;ratioP2
65071;SDS011;51663;52.310;17.016;2022-10-26T00:00:37;11.10;;;9.30;;
65071;SDS011;51663;52.310;17.016;2022-10-26T00:03:59;9.53;;;8.63;;
65071;SDS011;51663;52.310;17.016;2022-10-26T00:07:01;10.57;;;9.30;;
65071;SDS011;51663;52.310;17.016;2022-10-26T00:10:03;10.13;;;9.00;;
65071;SDS011;51663;52.310;17.016;2022-10-26T00:13:07;14.03;;;8.77;;
65071;SDS011;51663;52.310;17.016;2022-10-26T00:16:17;13.37;;;8.77;;
65071;SDS011;51663;52.310;17.016;2022-10-26T00:19:31;10.70;;;8.07;;
65071;SDS011;51663;52.310;17.016;2022-10-26T00:22:34;13.23;;;8.60;;
65071;SDS011;51663;52.310;17.016;2022-10-26T00:25:36;12.50;;;9.50;;
65071;SDS011;51663;52.310;17.016;2022-10-26T00:28:39;14.13;;;8.20;;
65071;SDS011;51663;52.310;17.016;2022-10-26T00:31:43;12.80;;;8.83;;
65071;SDS011;51663;52.310;17.016;2022-10-26T00:34:45;13.90;;;8.40;;
65071;SDS011;51663;52.310;17.016;2022-10-26T00:37:47;10.63;;;8.17;;
65071;SDS011;51663;52.310;17.016;2022-10-26T00:40:50;9.57;;;8.57;;
65071;SDS011;51663;52.310;17.016;2022-10-26T00:43:52;14.57;;;8.77;;
65071;SDS011;51663;52.310;17.016;2022-10-26T00:46:55;10.33;;;8.03;;
65071;SDS011;51663;52.310;17.016;2022-10-26T00:49:58;15.30;;;9.07;;
65071;SDS011;51663;52.310;17.016;2022-10-26T00:53:05;11.27;;;8.60;;
65071;SDS011;51663;52.310;17.016;2022-10-26T00:56:07;10.80;;;8.43;;
65071;SDS011;51663;52.310;17.016;2022-10-26T00:59:10;8.77;;;7.87;;
65071;SDS011;51663;52.310;17.016;2022-10-26T01:02:14;8.30;;;7.43;;
65071;SDS011;51663;52.310;17.016;2022-10-26T01:05:16;10.77;;;8.13;;
65071;SDS011;51663;52.310;17.016;2022-10-26T01:08:19;8.67;;;7.47;;
65071;SDS011;51663;52.310;17.016;2022-10-26T01:11:22;10.73;;;8.53;;
65071;SDS011;51663;52.310;17.016;2022-10-26T01:14:24;8.90;;;7.73;;
65071;SDS011;51663;52.310;17.016;2022-10-26T01:27:47;9.23;;;7.67;;
65071;SDS011;51663;52.310;17.016;2022-10-26T01:30:52;10.07;;;7.27;;
65071;SDS011;51663;52.310;17.016;2022-10-26T01:34:32;9.63;;;7.67;;
65071;SDS011;51663;52.310;17.016;2022-10-26T01:37:48;13.97;;;9.23;;
65071;SDS011;51663;52.310;17.016;2022-10-26T01:41:28;19.63;;;9.70;;
65071;SDS011;51663;52.310;17.016;2022-10-26T01:44:35;17.83;;;9.33;;
65071;SDS011;51663;52.310;17.016;2022-10-26T01:47:43;14.97;;;9.57;;
65071;SDS011;51663;52.310;17.016;2022-10-26T01:50:49;10.60;;;9.50;;
65071;SDS011;51663;52.310;17.016;2022-10-26T01:53:54;13.33;;;10.17;;
65071;SDS011;51663;52.310;17.016;2022-10-26T01:56:58;14.73;;;10.10;;
65071;SDS011;51663;52.310;17.016;2022-10-26T02:00:05;20.57;;;10.77;;
65071;SDS011;51663;52.310;17.016;2022-10-26T02:15:58;11.87;;;10.17;;
65071;SDS011;51663;52.310;17.016;2022-10-26T02:22:14;14.30;;;10.27;;
65071;SDS011;51663;52.310;17.016;2022-10-26T02:25:39;10.60;;;9.60;;
65071;SDS011;51663;52.310;17.016;2022-10-26T02:28:46;9.90;;;8.90;;
65071;SDS011;51663;52.310;17.016;2022-10-26T02:31:51;11.00;;;9.63;;
65071;SDS011;51663;52.310;17.016;2022-10-26T02:34:54;10.47;;;9.47;;
65071;SDS011;51663;52.310;17.016;2022-10-26T02:37:59;11.27;;;9.73;;
65071;SDS011;51663;52.310;17.016;2022-10-26T02:41:05;13.97;;;10.20;;
65071;SDS011;51663;52.310;17.016;2022-10-26T02:44:20;15.80;;;10.40;;
65071;SDS011;51663;52.310;17.016;2022-10-26T02:47:29;20.57;;;9.33;;
65071;SDS011;51663;52.310;17.016;2022-10-26T02:50:32;11.47;;;9.07;;
65071;SDS011;51663;52.310;17.016;2022-10-26T02:57:09;15.17;;;9.07;;
65071;SDS011;51663;52.310;17.016;2022-10-26T03:00:25;16.03;;;8.53;;
65071;SDS011;51663;52.310;17.016;2022-10-26T03:03:27;18.53;;;9.13;;
65071;SDS011;51663;52.310;17.016;2022-10-26T03:06:29;17.47;;;8.50;;
65071;SDS011;51663;52.310;17.016;2022-10-26T03:09:31;9.80;;;8.00;;
65071;SDS011;51663;52.310;17.016;2022-10-26T03:12:33;14.10;;;8.53;;
65071;SDS011;51663;52.310;17.016;2022-10-26T03:15:35;15.93;;;9.20;;
65071;SDS011;51663;52.310;17.016;2022-10-26T03:18:38;9.60;;;8.60;;
65071;SDS011;51663;52.310;17.016;2022-10-26T03:21:40;9.10;;;8.10;;
65071;SDS011;51663;52.310;17.016;2022-10-26T03:24:43;10.10;;;9.07;;
65071;SDS011;51663;52.310;17.016;2022-10-26T03:27:44;9.77;;;8.87;;
65071;SDS011;51663;52.310;17.016;2022-10-26T03:30:47;8.30;;;7.60;;
65071;SDS011;51663;52.310;17.016;2022-10-26T03:33:49;8.53;;;7.83;;
65071;SDS011;51663;52.310;17.016;2022-10-26T03:36:51;9.33;;;7.70;;
65071;SDS011;51663;52.310;17.016;2022-10-26T03:39:53;9.23;;;8.43;;
65071;SDS011;51663;52.310;17.016;2022-10-26T03:42:55;10.30;;;8.77;;
65071;SDS011;51663;52.310;17.016;2022-10-26T03:45:57;9.50;;;8.60;;
65071;SDS011;51663;52.310;17.016;2022-10-26T03:48:59;10.13;;;8.90;;
65071;SDS011;51663;52.310;17.016;2022-10-26T03:52:01;8.50;;;7.80;;
65071;SDS011;51663;52.310;17.016;2022-10-26T03:55:04;9.03;;;8.20;;
65071;SDS011;51663;52.310;17.016;2022-10-26T03:58:07;10.27;;;9.30;;
65071;SDS011;51663;52.310;17.016;2022-10-26T04:01:09;13.03;;;9.57;;
65071;SDS011;51663;52.310;17.016;2022-10-26T04:04:11;12.10;;;10.43;;
65071;SDS011;51663;52.310;17.016;2022-10-26T04:07:13;14.50;;;10.43;;
65071;SDS011;51663;52.310;17.016;2022-10-26T04:10:15;15.43;;;10.60;;
65071;SDS011;51663;52.310;17.016;2022-10-26T04:13:17;22.80;;;11.90;;
65071;SDS011;51663;52.310;17.016;2022-10-26T04:16:19;30.83;;;12.73;;
65071;SDS011;51663;52.310;17.016;2022-10-26T04:19:22;31.57;;;13.00;;
65071;SDS011;51663;52.310;17.016;2022-10-26T04:22:24;35.93;;;12.93;;
65071;SDS011;51663;52.310;17.016;2022-10-26T04:25:27;17.77;;;12.10;;
65071;SDS011;51663;52.310;17.016;2022-10-26T04:28:33;23.77;;;11.83;;
65071;SDS011;51663;52.310;17.016;2022-10-26T04:31:35;25.37;;;10.67;;
65071;SDS011;51663;52.310;17.016;2022-10-26T04:34:37;26.30;;;8.97;;
65071;SDS011;51663;52.310;17.016;2022-10-26T04:37:39;18.13;;;8.70;;
65071;SDS011;51663;52.310;17.016;2022-10-26T04:40:41;21.33;;;7.60;;
65071;SDS011;51663;52.310;17.016;2022-10-26T04:43:44;13.07;;;7.50;;
65071;SDS011;51663;52.310;17.016;2022-10-26T04:46:46;12.63;;;6.77;;
65071;SDS011;51663;52.310;17.016;2022-10-26T04:49:48;18.47;;;7.80;;
65071;SDS011;51663;52.310;17.016;2022-10-26T04:52:50;22.33;;;7.90;;
65071;SDS011;51663;52.310;17.016;2022-10-26T04:55:56;22.17;;;8.53;;
65071;SDS011;51663;52.310;17.016;2022-10-26T04:58:58;24.60;;;8.23;;
65071;SDS011;51663;52.310;17.016;2022-10-26T05:02:00;30.23;;;8.47;;
65071;SDS011;51663;52.310;17.016;2022-10-26T05:05:03;32.07;;;9.43;;
65071;SDS011;51663;52.310;17.016;2022-10-26T05:08:09;28.17;;;8.70;;
65071;SDS011;51663;52.310;17.016;2022-10-26T05:11:11;45.67;;;7.53;;
65071;SDS011;51663;52.310;17.016;2022-10-26T05:14:13;24.73;;;6.37;;
65071;SDS011;51663;52.310;17.016;2022-10-26T05:17:15;21.80;;;7.03;;
65071;SDS011;51663;52.310;17.016;2022-10-26T05:20:17;21.33;;;7.70;;
65071;SDS011;51663;52.310;17.016;2022-10-26T05:23:19;23.10;;;7.80;;
65071;SDS011;51663;52.310;17.016;2022-10-26T05:26:22;18.80;;;8.27;;
65071;SDS011;51663;52.310;17.016;2022-10-26T05:29:25;30.23;;;9.00;;
65071;SDS011;51663;52.310;17.016;2022-10-26T05:32:27;25.30;;;10.47;;
65071;SDS011;51663;52.310;17.016;2022-10-26T05:35:29;18.07;;;8.97;;
65071;SDS011;51663;52.310;17.016;2022-10-26T05:38:32;23.50;;;10.50;;
65071;SDS011;51663;52.310;17.016;2022-10-26T05:41:34;28.57;;;10.13;;
65071;SDS011;51663;52.310;17.016;2022-10-26T05:44:36;15.27;;;10.57;;
65071;SDS011;51663;52.310;17.016;2022-10-26T05:47:38;23.27;;;9.93;;
65071;SDS011;51663;52.310;17.016;2022-10-26T05:50:42;21.80;;;9.63;;
65071;SDS011;51663;52.310;17.016;2022-10-26T05:53:44;18.37;;;9.80;;
65071;SDS011;51663;52.310;17.016;2022-10-26T05:56:46;25.67;;;10.47;;
65071;SDS011;51663;52.310;17.016;2022-10-26T05:59:48;24.33;;;9.03;;
65071;SDS011;51663;52.310;17.016;2022-10-26T06:06:21;23.20;;;9.43;;
65071;SDS011;51663;52.310;17.016;2022-10-26T06:09:23;22.17;;;8.67;;
65071;SDS011;51663;52.310;17.016;2022-10-26T06:12:26;15.10;;;9.50;;
65071;SDS011;51663;52.310;17.016;2022-10-26T06:15:28;17.13;;;10.00;;
65071;SDS011;51663;52.310;17.016;2022-10-26T06:18:36;15.67;;;9.63;;
65071;SDS011;51663;52.310;17.016;2022-10-26T06:31:22;13.77;;;9.50;;
65071;SDS011;51663;52.310;17.016;2022-10-26T06:34:26;11.63;;;9.57;;
65071;SDS011;51663;52.310;17.016;2022-10-26T06:37:33;25.57;;;12.13;;
65071;SDS011;51663;52.310;17.016;2022-10-26T06:40:37;20.40;;;12.20;;
65071;SDS011;51663;52.310;17.016;2022-10-26T06:43:43;35.53;;;13.73;;
65071;SDS011;51663;52.310;17.016;2022-10-26T06:49:58;19.30;;;13.90;;
65071;SDS011;51663;52.310;17.016;2022-10-26T06:53:15;19.90;;;12.30;;
65071;SDS011;51663;52.310;17.016;2022-10-26T06:56:34;11.20;;;10.10;;
65071;SDS011;51663;52.310;17.016;2022-10-26T07:03:17;18.63;;;9.17;;
65071;SDS011;51663;52.310;17.016;2022-10-26T07:06:19;20.13;;;9.40;;
65071;SDS011;51663;52.310;17.016;2022-10-26T07:09:26;21.93;;;9.70;;
65071;SDS011;51663;52.310;17.016;2022-10-26T07:12:31;21.97;;;11.10;;
65071;SDS011;51663;52.310;17.016;2022-10-26T07:15:34;17.33;;;11.40;;
65071;SDS011;51663;52.310;17.016;2022-10-26T07:18:37;30.67;;;11.40;;
65071;SDS011;51663;52.310;17.016;2022-10-26T07:21:39;29.17;;;11.13;;
65071;SDS011;51663;52.310;17.016;2022-10-26T07:24:41;13.90;;;11.97;;
65071;SDS011;51663;52.310;17.016;2022-10-26T07:27:43;13.37;;;11.37;;
65071;SDS011;51663;52.310;17.016;2022-10-26T07:30:45;13.20;;;10.70;;
65071;SDS011;51663;52.310;17.016;2022-10-26T07:33:47;12.33;;;11.00;;
65071;SDS011;51663;52.310;17.016;2022-10-26T07:36:49;15.23;;;10.43;;
65071;SDS011;51663;52.310;17.016;2022-10-26T07:39:52;12.67;;;10.60;;
65071;SDS011;51663;52.310;17.016;2022-10-26T07:42:58;15.77;;;11.73;;
65071;SDS011;51663;52.310;17.016;2022-10-26T07:46:01;14.60;;;10.90;;
65071;SDS011;51663;52.310;17.016;2022-10-26T07:49:03;11.82;;;10.48;;
65071;SDS011;51663;52.310;17.016;2022-10-26T07:52:05;13.07;;;11.70;;
65071;SDS011;51663;52.310;17.016;2022-10-26T07:55:08;15.60;;;12.25;;
65071;SDS011;51663;52.310;17.016;2022-10-26T07:58:11;14.60;;;12.38;;
65071;SDS011;51663;52.310;17.016;2022-10-26T08:01:14;14.60;;;13.05;;
65071;SDS011;51663;52.310;17.016;2022-10-26T08:04:16;15.00;;;12.50;;
65071;SDS011;51663;52.310;17.016;2022-10-26T08:07:19;13.75;;;12.25;;
65071;SDS011;51663;52.310;17.016;2022-10-26T08:10:22;13.98;;;12.38;;
65071;SDS011;51663;52.310;17.016;2022-10-26T08:13:27;16.75;;;13.65;;
65071;SDS011;51663;52.310;17.016;2022-10-26T08:16:29;14.77;;;12.88;;
65071;SDS011;51663;52.310;17.016;2022-10-26T08:19:33;14.52;;;12.98;;
65071;SDS011;51663;52.310;17.016;2022-10-26T08:22:35;16.85;;;13.73;;
65071;SDS011;51663;52.310;17.016;2022-10-26T08:25:40;15.00;;;13.40;;
65071;SDS011;51663;52.310;17.016;2022-10-26T08:28:41;13.77;;;12.20;;
65071;SDS011;51663;52.310;17.016;2022-10-26T08:31:44;14.73;;;13.23;;
65071;SDS011;51663;52.310;17.016;2022-10-26T08:34:48;17.27;;;12.98;;
65071;SDS011;51663;52.310;17.016;2022-10-26T08:37:51;15.52;;;13.70;;
65071;SDS011;51663;52.310;17.016;2022-10-26T08:40:53;15.30;;;13.25;;
65071;SDS011;51663;52.310;17.016;2022-10-26T08:43:59;17.15;;;13.15;;
65071;SDS011;51663;52.310;17.016;2022-10-26T08:47:21;15.93;;;14.10;;
65071;SDS011;51663;52.310;17.016;2022-10-26T08:50:31;15.70;;;13.50;;
65071;SDS011;51663;52.310;17.016;2022-10-26T08:53:51;15.73;;;13.93;;
65071;SDS011;51663;52.310;17.016;2022-10-26T08:56:56;40.25;;;26.27;;
65071;SDS011;51663;52.310;17.016;2022-10-26T09:00:04;18.10;;;13.95;;
65071;SDS011;51663;52.310;17.016;2022-10-26T09:03:16;19.60;;;14.93;;
65071;SDS011;51663;52.310;17.016;2022-10-26T09:26:30;16.92;;;14.13;;
65071;SDS011;51663;52.310;17.016;2022-10-26T09:29:37;20.92;;;14.77;;
65071;SDS011;51663;52.310;17.016;2022-10-26T09:32:43;41.03;;;28.38;;
65071;SDS011;51663;52.310;17.016;2022-10-26T09:35:49;17.35;;;14.45;;
65071;SDS011;51663;52.310;17.016;2022-10-26T09:38:55;17.15;;;13.70;;
65071;SDS011;51663;52.310;17.016;2022-10-26T09:42:15;16.17;;;13.45;;
65071;SDS011;51663;52.310;17.016;2022-10-26T09:45:23;14.98;;;13.32;;
65071;SDS011;51663;52.310;17.016;2022-10-26T09:51:56;17.05;;;12.68;;
65071;SDS011;51663;52.310;17.016;2022-10-26T09:54:58;15.32;;;13.38;;
65071;SDS011;51663;52.310;17.016;2022-10-26T09:58:01;17.08;;;13.07;;
65071;SDS011;51663;52.310;17.016;2022-10-26T10:01:19;15.35;;;12.60;;
65071;SDS011;51663;52.310;17.016;2022-10-26T10:04:22;13.85;;;12.27;;
65071;SDS011;51663;52.310;17.016;2022-10-26T10:07:24;15.82;;;12.23;;
65071;SDS011;51663;52.310;17.016;2022-10-26T10:10:26;19.23;;;14.00;;
65071;SDS011;51663;52.310;17.016;2022-10-26T10:13:29;19.25;;;12.77;;
65071;SDS011;51663;52.310;17.016;2022-10-26T10:16:33;13.65;;;11.40;;
65071;SDS011;51663;52.310;17.016;2022-10-26T10:19:37;14.43;;;11.05;;
65071;SDS011;51663;52.310;17.016;2022-10-26T10:22:51;11.05;;;9.95;;
65071;SDS011;51663;52.310;17.016;2022-10-26T10:26:16;12.05;;;10.85;;
65071;SDS011;51663;52.310;17.016;2022-10-26T10:29:18;12.25;;;10.30;;
65071;SDS011;51663;52.310;17.016;2022-10-26T10:32:21;12.73;;;10.98;;
65071;SDS011;51663;52.310;17.016;2022-10-26T10:35:45;12.38;;;10.95;;
65071;SDS011;51663;52.310;17.016;2022-10-26T10:38:51;13.02;;;11.60;;
65071;SDS011;51663;52.310;17.016;2022-10-26T10:41:54;13.90;;;10.50;;
65071;SDS011;51663;52.310;17.016;2022-10-26T10:44:57;12.98;;;9.57;;
65071;SDS011;51663;52.310;17.016;2022-10-26T10:51:04;12.52;;;8.25;;
65071;SDS011;51663;52.310;17.016;2022-10-26T10:54:28;10.88;;;8.38;;
65071;SDS011;51663;52.310;17.016;2022-10-26T11:00:58;12.23;;;9.27;;
65071;SDS011;51663;52.310;17.016;2022-10-26T11:07:58;12.15;;;8.82;;
65071;SDS011;51663;52.310;17.016;2022-10-26T11:11:12;10.98;;;8.68;;
65071;SDS011;51663;52.310;17.016;2022-10-26T11:17:31;10.05;;;8.75;;
65071;SDS011;51663;52.310;17.016;2022-10-26T11:21:02;9.45;;;8.45;;
65071;SDS011;51663;52.310;17.016;2022-10-26T11:27:31;9.40;;;8.45;;
65071;SDS011;51663;52.310;17.016;2022-10-26T11:30:42;9.30;;;8.40;;
65071;SDS011;51663;52.310;17.016;2022-10-26T11:33:55;9.23;;;8.32;;
65071;SDS011;51663;52.310;17.016;2022-10-26T11:43:56;10.07;;;9.18;;
65071;SDS011;51663;52.310;17.016;2022-10-26T11:47:16;12.63;;;8.93;;
65071;SDS011;51663;52.310;17.016;2022-10-26T11:50:24;10.65;;;8.65;;
65071;SDS011;51663;52.310;17.016;2022-10-26T11:53:31;9.55;;;7.60;;
65071;SDS011;51663;52.310;17.016;2022-10-26T11:56:40;8.38;;;7.55;;
65071;SDS011;51663;52.310;17.016;2022-10-26T12:00:43;8.55;;;7.85;;
65071;SDS011;51663;52.310;17.016;2022-10-26T12:03:14;8.30;;;7.57;;
65071;SDS011;51663;52.310;17.016;2022-10-26T12:06:21;8.57;;;7.65;;
65071;SDS011;51663;52.310;17.016;2022-10-26T12:09:29;9.65;;;8.23;;
65071;SDS011;51663;52.310;17.016;2022-10-26T12:15:59;10.02;;;7.10;;
65071;SDS011;51663;52.310;17.016;2022-10-26T12:19:06;8.45;;;7.63;;
65071;SDS011;51663;52.310;17.016;2022-10-26T12:22:21;13.57;;;8.10;;
65071;SDS011;51663;52.310;17.016;2022-10-26T12:25:29;14.13;;;7.80;;
65071;SDS011;51663;52.310;17.016;2022-10-26T12:37:40;11.32;;;7.40;;
65071;SDS011;51663;52.310;17.016;2022-10-26T12:40:42;10.85;;;8.10;;
65071;SDS011;51663;52.310;17.016;2022-10-26T12:43:45;8.95;;;7.97;;
65071;SDS011;51663;52.310;17.016;2022-10-26T12:46:47;7.82;;;7.13;;
65071;SDS011;51663;52.310;17.016;2022-10-26T12:53:10;10.38;;;8.25;;
65071;SDS011;51663;52.310;17.016;2022-10-26T12:56:19;11.43;;;7.18;;
65071;SDS011;51663;52.310;17.016;2022-10-26T13:06:33;14.27;;;7.28;;
65071;SDS011;51663;52.310;17.016;2022-10-26T13:09:55;7.82;;;7.03;;
65071;SDS011;51663;52.310;17.016;2022-10-26T13:13:06;10.18;;;6.88;;
65071;SDS011;51663;52.310;17.016;2022-10-26T13:16:09;7.20;;;6.38;;
65071;SDS011;51663;52.310;17.016;2022-10-26T13:19:29;8.52;;;6.22;;
65071;SDS011;51663;52.310;17.016;2022-10-26T13:22:55;6.13;;;5.10;;
65071;SDS011;51663;52.310;17.016;2022-10-26T13:29:07;8.02;;;5.10;;
65071;SDS011;51663;52.310;17.016;2022-10-26T13:32:11;9.15;;;5.68;;
65071;SDS011;51663;52.310;17.016;2022-10-26T13:35:14;5.00;;;4.40;;
65071;SDS011;51663;52.310;17.016;2022-10-26T13:38:19;12.18;;;4.60;;
65071;SDS011;51663;52.310;17.016;2022-10-26T13:41:31;5.35;;;4.45;;
65071;SDS011;51663;52.310;17.016;2022-10-26T13:44:51;8.48;;;4.50;;
65071;SDS011;51663;52.310;17.016;2022-10-26T13:47:56;6.90;;;3.78;;
65071;SDS011;51663;52.310;17.016;2022-10-26T13:51:09;6.32;;;4.25;;
65071;SDS011;51663;52.310;17.016;2022-10-26T13:54:37;10.10;;;3.97;;
65071;SDS011;51663;52.310;17.016;2022-10-26T13:57:59;6.25;;;3.65;;
65071;SDS011;51663;52.310;17.016;2022-10-26T14:01:22;4.55;;;3.85;;
65071;SDS011;51663;52.310;17.016;2022-10-26T14:04:26;6.22;;;3.75;;
65071;SDS011;51663;52.310;17.016;2022-10-26T14:10:40;8.35;;;4.95;;
65071;SDS011;51663;52.310;17.016;2022-10-26T14:13:46;7.30;;;4.53;;
65071;SDS011;51663;52.310;17.016;2022-10-26T14:16:51;6.85;;;4.53;;
65071;SDS011;51663;52.310;17.016;2022-10-26T14:19:54;17.20;;;8.57;;
65071;SDS011;51663;52.310;17.016;2022-10-26T14:22:56;10.55;;;8.80;;
65071;SDS011;51663;52.310;17.016;2022-10-26T14:25:58;11.57;;;6.68;;
65071;SDS011;51663;52.310;17.016;2022-10-26T14:29:00;10.00;;;6.40;;
65071;SDS011;51663;52.310;17.016;2022-10-26T14:32:18;12.27;;;6.13;;
65071;SDS011;51663;52.310;17.016;2022-10-26T14:35:38;10.02;;;5.93;;
65071;SDS011;51663;52.310;17.016;2022-10-26T14:38:43;10.73;;;5.35;;
65071;SDS011;51663;52.310;17.016;2022-10-26T14:41:49;6.72;;;5.60;;
65071;SDS011;51663;52.310;17.016;2022-10-26T14:44:53;13.48;;;6.30;;
65071;SDS011;51663;52.310;17.016;2022-10-26T14:47:55;8.68;;;5.90;;
65071;SDS011;51663;52.310;17.016;2022-10-26T14:51:00;14.77;;;6.75;;
65071;SDS011;51663;52.310;17.016;2022-10-26T14:54:20;11.75;;;5.72;;
65071;SDS011;51663;52.310;17.016;2022-10-26T14:57:33;8.98;;;6.50;;
65071;SDS011;51663;52.310;17.016;2022-10-26T15:00:37;12.07;;;6.47;;
65071;SDS011;51663;52.310;17.016;2022-10-26T15:03:39;10.52;;;6.03;;
65071;SDS011;51663;52.310;17.016;2022-10-26T15:06:42;9.63;;;5.80;;
65071;SDS011;51663;52.310;17.016;2022-10-26T15:09:47;9.10;;;5.00;;
65071;SDS011;51663;52.310;17.016;2022-10-26T15:12:53;9.77;;;5.75;;
65071;SDS011;51663;52.310;17.016;2022-10-26T15:16:08;10.68;;;4.90;;
65071;SDS011;51663;52.310;17.016;2022-10-26T15:19:31;6.80;;;4.63;;
65071;SDS011;51663;52.310;17.016;2022-10-26T15:22:34;8.43;;;4.88;;
65071;SDS011;51663;52.310;17.016;2022-10-26T15:25:59;20.23;;;12.07;;
65071;SDS011;51663;52.310;17.016;2022-10-26T15:29:03;8.13;;;5.43;;
65071;SDS011;51663;52.310;17.016;2022-10-26T15:32:16;21.88;;;15.23;;
65071;SDS011;51663;52.310;17.016;2022-10-26T15:38:24;9.25;;;6.35;;
65071;SDS011;51663;52.310;17.016;2022-10-26T15:41:32;11.50;;;5.80;;
65071;SDS011;51663;52.310;17.016;2022-10-26T15:44:41;17.65;;;9.43;;
65071;SDS011;51663;52.310;17.016;2022-10-26T15:47:43;14.18;;;7.47;;
65071;SDS011;51663;52.310;17.016;2022-10-26T15:50:47;15.20;;;8.23;;
65071;SDS011;51663;52.310;17.016;2022-10-26T15:53:49;15.27;;;6.38;;
65071;SDS011;51663;52.310;17.016;2022-10-26T15:56:52;15.70;;;9.63;;
65071;SDS011;51663;52.310;17.016;2022-10-26T15:59:54;24.20;;;9.43;;
65071;SDS011;51663;52.310;17.016;2022-10-26T16:02:56;22.58;;;9.90;;
65071;SDS011;51663;52.310;17.016;2022-10-26T16:05:59;17.53;;;9.83;;
65071;SDS011;51663;52.310;17.016;2022-10-26T16:09:03;20.00;;;9.67;;
65071;SDS011;51663;52.310;17.016;2022-10-26T16:12:08;21.42;;;10.40;;
65071;SDS011;51663;52.310;17.016;2022-10-26T16:15:16;25.02;;;11.30;;
65071;SDS011;51663;52.310;17.016;2022-10-26T16:18:23;26.23;;;11.53;;
65071;SDS011;51663;52.310;17.016;2022-10-26T16:21:25;25.70;;;12.85;;
65071;SDS011;51663;52.310;17.016;2022-10-26T16:24:28;29.03;;;12.93;;
65071;SDS011;51663;52.310;17.016;2022-10-26T16:27:31;47.57;;;20.33;;
65071;SDS011;51663;52.310;17.016;2022-10-26T16:30:33;66.83;;;24.63;;
65071;SDS011;51663;52.310;17.016;2022-10-26T16:33:37;53.57;;;19.33;;
65071;SDS011;51663;52.310;17.016;2022-10-26T16:36:39;33.53;;;13.97;;
65071;SDS011;51663;52.310;17.016;2022-10-26T16:39:41;30.90;;;13.53;;
65071;SDS011;51663;52.310;17.016;2022-10-26T16:42:43;31.40;;;12.77;;
65071;SDS011;51663;52.310;17.016;2022-10-26T16:45:46;31.53;;;13.43;;
65071;SDS011;51663;52.310;17.016;2022-10-26T16:48:48;23.97;;;11.43;;
65071;SDS011;51663;52.310;17.016;2022-10-26T16:51:51;23.83;;;9.47;;
65071;SDS011;51663;52.310;17.016;2022-10-26T16:54:52;25.70;;;9.90;;
65071;SDS011;51663;52.310;17.016;2022-10-26T16:57:55;16.77;;;8.13;;
65071;SDS011;51663;52.310;17.016;2022-10-26T17:00:57;19.17;;;8.33;;
65071;SDS011;51663;52.310;17.016;2022-10-26T17:03:59;18.93;;;8.10;;
65071;SDS011;51663;52.310;17.016;2022-10-26T17:07:05;23.83;;;7.93;;
65071;SDS011;51663;52.310;17.016;2022-10-26T17:10:07;23.43;;;7.83;;
65071;SDS011;51663;52.310;17.016;2022-10-26T17:13:09;24.53;;;8.60;;
65071;SDS011;51663;52.310;17.016;2022-10-26T17:16:13;16.27;;;7.40;;
65071;SDS011;51663;52.310;17.016;2022-10-26T17:19:16;26.00;;;8.03;;
65071;SDS011;51663;52.310;17.016;2022-10-26T17:22:19;15.90;;;7.40;;
65071;SDS011;51663;52.310;17.016;2022-10-26T17:25:37;12.00;;;7.03;;
65071;SDS011;51663;52.310;17.016;2022-10-26T17:28:39;13.27;;;7.50;;
65071;SDS011;51663;52.310;17.016;2022-10-26T17:31:41;18.23;;;7.30;;
65071;SDS011;51663;52.310;17.016;2022-10-26T17:34:44;20.20;;;6.93;;
65071;SDS011;51663;52.310;17.016;2022-10-26T17:37:47;20.57;;;7.00;;
65071;SDS011;51663;52.310;17.016;2022-10-26T17:40:50;15.00;;;6.57;;
65071;SDS011;51663;52.310;17.016;2022-10-26T17:43:53;12.53;;;7.00;;
65071;SDS011;51663;52.310;17.016;2022-10-26T17:46:55;18.90;;;7.37;;
65071;SDS011;51663;52.310;17.016;2022-10-26T17:49:58;17.60;;;7.90;;
65071;SDS011;51663;52.310;17.016;2022-10-26T17:53:01;15.87;;;8.37;;
65071;SDS011;51663;52.310;17.016;2022-10-26T17:56:08;19.33;;;7.53;;
65071;SDS011;51663;52.310;17.016;2022-10-26T17:59:13;17.47;;;7.83;;
65071;SDS011;51663;52.310;17.016;2022-10-26T18:02:15;14.30;;;8.60;;
65071;SDS011;51663;52.310;17.016;2022-10-26T18:05:18;31.70;;;15.73;;
65071;SDS011;51663;52.310;17.016;2022-10-26T18:08:23;19.23;;;9.47;;
65071;SDS011;51663;52.310;17.016;2022-10-26T18:11:26;27.57;;;11.90;;
65071;SDS011;51663;52.310;17.016;2022-10-26T18:14:29;27.87;;;13.83;;
65071;SDS011;51663;52.310;17.016;2022-10-26T18:17:32;30.00;;;13.23;;
65071;SDS011;51663;52.310;17.016;2022-10-26T18:20:35;23.50;;;9.17;;
65071;SDS011;51663;52.310;17.016;2022-10-26T18:23:37;20.33;;;10.57;;
65071;SDS011;51663;52.310;17.016;2022-10-26T18:26:40;37.30;;;18.80;;
65071;SDS011;51663;52.310;17.016;2022-10-26T18:29:43;37.23;;;20.07;;
65071;SDS011;51663;52.310;17.016;2022-10-26T18:32:47;35.47;;;17.07;;
65071;SDS011;51663;52.310;17.016;2022-10-26T18:35:51;38.57;;;15.40;;
65071;SDS011;51663;52.310;17.016;2022-10-26T18:38:53;47.00;;;19.50;;
65071;SDS011;51663;52.310;17.016;2022-10-26T18:41:56;51.53;;;24.53;;
65071;SDS011;51663;52.310;17.016;2022-10-26T18:44:59;63.70;;;29.60;;
65071;SDS011;51663;52.310;17.016;2022-10-26T18:48:04;85.87;;;39.50;;
65071;SDS011;51663;52.310;17.016;2022-10-26T18:51:08;79.30;;;40.17;;
65071;SDS011;51663;52.310;17.016;2022-10-26T18:54:12;65.30;;;29.20;;
65071;SDS011;51663;52.310;17.016;2022-10-26T18:57:18;69.13;;;28.83;;
65071;SDS011;51663;52.310;17.016;2022-10-26T19:00:25;63.30;;;28.97;;
65071;SDS011;51663;52.310;17.016;2022-10-26T19:03:28;62.73;;;27.53;;
65071;SDS011;51663;52.310;17.016;2022-10-26T19:06:35;61.60;;;27.47;;
65071;SDS011;51663;52.310;17.016;2022-10-26T19:09:38;58.87;;;24.97;;
65071;SDS011;51663;52.310;17.016;2022-10-26T19:12:41;68.23;;;26.80;;
65071;SDS011;51663;52.310;17.016;2022-10-26T19:15:45;56.67;;;28.20;;
65071;SDS011;51663;52.310;17.016;2022-10-26T19:18:50;59.90;;;27.80;;
65071;SDS011;51663;52.310;17.016;2022-10-26T19:21:58;63.07;;;29.27;;
65071;SDS011;51663;52.310;17.016;2022-10-26T19:25:01;64.07;;;31.70;;
65071;SDS011;51663;52.310;17.016;2022-10-26T19:28:04;61.37;;;30.30;;
65071;SDS011;51663;52.310;17.016;2022-10-26T19:31:07;65.47;;;29.77;;
65071;SDS011;51663;52.310;17.016;2022-10-26T19:34:12;70.00;;;32.27;;
65071;SDS011;51663;52.310;17.016;2022-10-26T19:37:14;74.80;;;36.33;;
65071;SDS011;51663;52.310;17.016;2022-10-26T19:40:16;60.80;;;32.60;;
65071;SDS011;51663;52.310;17.016;2022-10-26T19:43:18;48.00;;;28.07;;
65071;SDS011;51663;52.310;17.016;2022-10-26T19:46:22;48.00;;;26.40;;
65071;SDS011;51663;52.310;17.016;2022-10-26T19:49:28;35.30;;;21.43;;
65071;SDS011;51663;52.310;17.016;2022-10-26T19:52:30;34.43;;;21.93;;
65071;SDS011;51663;52.310;17.016;2022-10-26T19:55:32;35.30;;;22.23;;
65071;SDS011;51663;52.310;17.016;2022-10-26T19:58:36;38.00;;;21.43;;
65071;SDS011;51663;52.310;17.016;2022-10-26T20:01:38;41.97;;;22.27;;
65071;SDS011;51663;52.310;17.016;2022-10-26T20:04:41;38.23;;;23.17;;
65071;SDS011;51663;52.310;17.016;2022-10-26T20:07:44;38.77;;;23.20;;
65071;SDS011;51663;52.310;17.016;2022-10-26T20:10:46;39.33;;;19.40;;